Aktuální počasí v Česku a ve světě - METAR

Seznam meteostanic umístěných nejčasteji na letišti v ČR a ve světě

Vyhledat místa podle abecedy:
A B C D E F G H I J K L M N O P Q R S T U V W X Y Z

Filtrovat:

ID stanice:
a/nebo
Název místa (fulltext):
 
Místo (ID)Naposledy načteno 
Pardubice (Pardubice) 21.04.2021 23:00 UTC Zobrazit data
Místo: Pardubice
Teplota: 6 °C (pocitová: 3.1 °C)
Vítr: 1 m/s z(e) 260°
Počasí: oblačno
Dohlednost: 20 km
Zákl. oblačnosti: 3/8 5400 m
Vlhkost: 81%
Pec pod Sněžkou (Pec p.Snez) 21.04.2021 23:00 UTC Zobrazit data
Místo: Pec pod Sněžkou
Teplota: 2 °C (pocitová: -1.8 °C)
Vítr: 1 m/s z(e) 190°
Počasí: skoro zataženo
Dohlednost: 35 km
Zákl. oblačnosti: 2/8 2100 m;4/8 7200 m
Vlhkost: 87%
Plzeň město - Mikulka (Plzen/Miku) 21.04.2021 23:00 UTC Zobrazit data
Místo: Plzeň město - Mikulka
Teplota: 8 °C (pocitová: 4.4 °C)
Vítr: 2 m/s z(e) 150°
Počasí: zataženo
Dohlednost: 24 km
Zákl. oblačnosti: 4/8 2100 m;8/8 3000 m
Vlhkost: 82%
Polom (Polom) 21.04.2021 23:00 UTC Zobrazit data
Místo: Polom
Teplota: 7 °C (pocitová: 4.3 °C)
Vítr: 1 m/s z(e) 210°
Počasí: skorojasno
Dohlednost: 20 km
Zákl. oblačnosti: 1/8 1500 m
Vlhkost: 61%
Praha - Karlov (Praha/Kar) 21.04.2021 23:00 UTC Zobrazit data
Místo: Praha - Karlov
Teplota: 8 °C (pocitová: 4.4 °C)
Vítr: 2 m/s z(e) 200°
Počasí: oblačno
Dohlednost: 29 km
Zákl. oblačnosti: 4/8 2400 m
Vlhkost: 76%
Praha - Kbely (Praha/Kbe) 21.04.2021 23:00 UTC Zobrazit data
Místo: Praha - Kbely
Teplota: 7 °C (pocitová: 1.2 °C)
Vítr: 4 m/s z(e) 220°
Počasí: oblačno
Dohlednost: 15 km
Zákl. oblačnosti: 3/8 2400 m
Vlhkost: 87%
Praha - Libuš (Praha/Lib) 21.04.2021 23:00 UTC Zobrazit data
Místo: Praha - Libuš
Teplota: 8 °C (pocitová: 5.5 °C)
Vítr: 1 m/s z(e) 250°
Počasí: skorojasno
Dohlednost: 27 km
Zákl. oblačnosti: 2/8 2400 m
Vlhkost: 76%
Praha - Ruzyně (Praha/Ru) 21.04.2021 23:00 UTC Zobrazit data
Místo: Praha - Ruzyně
Teplota: 6 °C (pocitová: 0.7 °C)
Vítr: 3 m/s z(e) 250°
Počasí: skoro zataženo
Dohlednost: 25 km
Zákl. oblačnosti: 5/8 2400 m;3/8 7800 m
Vlhkost: 81%
Přibyslav (Pribyslav) 21.04.2021 23:00 UTC Zobrazit data
Místo: Přibyslav
Teplota: 6 °C (pocitová: 3.1 °C)
Vítr: 1 m/s z(e) 0°
Počasí:
Dohlednost: 20 km
Zákl. oblačnosti: N/A
Vlhkost: 87%
Přimda (Primda) 21.04.2021 23:00 UTC Zobrazit data
Místo: Přimda
Teplota: 6 °C (pocitová: 0.7 °C)
Vítr: 3 m/s z(e) 270°
Počasí: zataženo
Dohlednost: 20 km
Zákl. oblačnosti: 6/8 1500 m;8/8 2700 m
Vlhkost: 87%
Pago Pago (NSTU) 21.04.2021 22:50 UTC Zobrazit METAR
NSTU 212250Z 10015KT 12SM FEW019 BKN040 BKN100 32/29 A2986 RMK SLP112 T03170285
Palanga (EYPA) 21.04.2021 22:50 UTC Zobrazit METAR
EYPA 212250Z AUTO 22007KT 180V260 9999 FEW100/// 05/03 Q1006
Palermo (LICJ) 21.04.2021 22:50 UTC Zobrazit METAR
LICJ 212250Z 20006KT CAVOK 17/12 Q1017
Palma de Mallorca (LEPA) 21.04.2021 23:00 UTC Zobrazit METAR
LEPA 212300Z 06006KT 9999 FEW022 SCT060 14/13 Q1014 NOSIG
Panama City (MPTO) 21.04.2021 15:00 UTC Zobrazit METAR
MPTO 211500Z 22003KT 9000 SCT020 30/25 Q1011 NOSIG
Paramaribo (SMZO) 21.04.2021 23:00 UTC Zobrazit METAR
SMZO 212300Z 03005KT 9999 FEW010 SCT025 26/23 Q1012 NOSIG
Paris (LFPG) 21.04.2021 23:00 UTC Zobrazit METAR
LFPG 212300Z 02014KT 9000 NSC 10/06 Q1020 NOSIG
Paro (VQPR) 21.04.2021 23:00 UTC Zobrazit METAR
VQPR 212300Z VRB02KT 8000 FEW120 07/04 Q1023
Phnom Penh (VDPP) 21.04.2021 23:00 UTC Zobrazit METAR
VDPP 212300Z 16003KT 9000 SCT015 SCT040 28/26 Q1007
Plovdiv (LBPD) 21.04.2021 16:00 UTC Zobrazit METAR
LBPD 211600Z AUTO 09012KT 9999 SCT086 14/07 Q1017 NOSIG
Pohnpei I (PTPN) 17.04.2021 01:51 UTC Zobrazit METAR
PTPN 170151Z 13006KT 15SM SCT018 BKN130 OVC300 30/26 A2978
Ponta Delgada (LPPD) 21.04.2021 23:00 UTC Zobrazit METAR
LPPD 212300Z 22018KT 6000 BKN005 BKN008 18/17 Q1008
Pori (EFPO) 21.04.2021 22:50 UTC Zobrazit METAR
EFPO 212250Z AUTO VRB02KT CAVOK 01/M01 Q1000
Port Moresby (AYPY) 21.04.2021 21:00 UTC Zobrazit METAR
AYPY 212100Z 35005KT 9999 HZ FEW050 24/23 Q1010=
Port of Spain (TTPP) 21.04.2021 23:00 UTC Zobrazit METAR
TTPP 212300Z 11007KT 9999 FEW020 27/21 Q1013 NOSIG
Port Vila (NVVV) 21.04.2021 23:00 UTC Zobrazit METAR
NVVV 212300Z 05004KT 9999 FEW020 31/24 Q1013
Port-au-Prince (MTPP) 21.04.2021 22:59 UTC Zobrazit METAR
MTPP 212259Z AUTO 01008KT 310V060 8000 ////// 30/21 Q1013 A2993 NOSIG
Porto (LPPR) 21.04.2021 23:00 UTC Zobrazit METAR
LPPR 212300Z 28004KT 240V310 9999 FEW004 SCT015 BKN036 15/14 Q1010
Poznan (EPPO) 21.04.2021 23:00 UTC Zobrazit METAR
EPPO 212300Z 30006KT CAVOK 08/02 Q1012
Prague (LKPR) 21.04.2021 23:00 UTC Zobrazit METAR
LKPR 212300Z 23007KT CAVOK 06/03 Q1015 NOSIG
Praia (GVFM) Zatím nenačteno  
Pyongyang (ZKPY) Zatím nenačteno  
Reklama

Reklama


Newslettter

Počasí na Váš email

Emaily jsou bez reklamy a bez spamu



Odhlásit newsletter




Další české internetové stránky (nejen) o počasí najdete v katalogu TOPlist - weby o počasí nebo vyhledejte na internetu, co jste tu na Počasí Slunečno Slunečnu zatím nenašli:
Přidat mezzi oblíbené stránkyPřidat Slunečno.cz do oblíbených | Nastavit jako HOMEPAGENastavit Slunečno.cz jako HOMEPAGE

Posunout stránku nahoru Posunout stránku nahoru Posunout stránku nahoru
Reklama